sensor_id;sensor_type;location;lat;lon;timestamp;P1;durP1;ratioP1;P2;durP2;ratioP2
4980;SDS011;2507;50.392;7.482;2022-10-18T00:00:59;12.10;;;9.90;;
4980;SDS011;2507;50.392;7.482;2022-10-18T00:03:24;11.10;;;9.77;;
4980;SDS011;2507;50.392;7.482;2022-10-18T00:05:50;10.50;;;9.40;;
4980;SDS011;2507;50.392;7.482;2022-10-18T00:08:16;10.93;;;9.17;;
4980;SDS011;2507;50.392;7.482;2022-10-18T00:10:42;12.37;;;9.43;;
4980;SDS011;2507;50.392;7.482;2022-10-18T00:13:08;13.73;;;9.53;;
4980;SDS011;2507;50.392;7.482;2022-10-18T00:15:33;12.37;;;10.17;;
4980;SDS011;2507;50.392;7.482;2022-10-18T00:17:58;9.97;;;8.87;;
4980;SDS011;2507;50.392;7.482;2022-10-18T00:20:24;11.50;;;10.07;;
4980;SDS011;2507;50.392;7.482;2022-10-18T00:22:49;9.97;;;8.90;;
4980;SDS011;2507;50.392;7.482;2022-10-18T00:25:15;12.37;;;9.40;;
4980;SDS011;2507;50.392;7.482;2022-10-18T00:27:41;10.97;;;8.63;;
4980;SDS011;2507;50.392;7.482;2022-10-18T00:30:06;9.30;;;8.40;;
4980;SDS011;2507;50.392;7.482;2022-10-18T00:32:36;11.97;;;8.50;;
4980;SDS011;2507;50.392;7.482;2022-10-18T00:35:04;19.70;;;9.43;;
4980;SDS011;2507;50.392;7.482;2022-10-18T00:37:31;9.50;;;8.60;;
4980;SDS011;2507;50.392;7.482;2022-10-18T00:39:57;13.70;;;10.20;;
4980;SDS011;2507;50.392;7.482;2022-10-18T00:42:23;11.47;;;10.27;;
4980;SDS011;2507;50.392;7.482;2022-10-18T00:45:03;10.60;;;9.60;;
4980;SDS011;2507;50.392;7.482;2022-10-18T00:47:40;10.93;;;9.33;;
4980;SDS011;2507;50.392;7.482;2022-10-18T00:50:09;15.00;;;10.47;;
4980;SDS011;2507;50.392;7.482;2022-10-18T00:52:36;11.97;;;10.23;;
4980;SDS011;2507;50.392;7.482;2022-10-18T00:55:06;12.23;;;11.00;;
4980;SDS011;2507;50.392;7.482;2022-10-18T00:57:32;14.43;;;10.20;;
4980;SDS011;2507;50.392;7.482;2022-10-18T00:59:57;12.50;;;10.60;;
4980;SDS011;2507;50.392;7.482;2022-10-18T01:02:23;12.83;;;10.67;;
4980;SDS011;2507;50.392;7.482;2022-10-18T01:04:49;12.47;;;11.10;;
4980;SDS011;2507;50.392;7.482;2022-10-18T01:21:26;16.63;;;12.63;;
4980;SDS011;2507;50.392;7.482;2022-10-18T01:29:42;17.37;;;11.37;;
4980;SDS011;2507;50.392;7.482;2022-10-18T01:32:25;13.37;;;11.97;;
4980;SDS011;2507;50.392;7.482;2022-10-18T01:34:54;18.97;;;13.50;;
4980;SDS011;2507;50.392;7.482;2022-10-18T01:37:23;20.27;;;14.00;;
4980;SDS011;2507;50.392;7.482;2022-10-18T01:39:51;16.70;;;12.90;;
4980;SDS011;2507;50.392;7.482;2022-10-18T01:42:19;16.47;;;12.03;;
4980;SDS011;2507;50.392;7.482;2022-10-18T01:44:45;18.97;;;13.43;;
4980;SDS011;2507;50.392;7.482;2022-10-18T01:47:13;26.10;;;13.07;;
4980;SDS011;2507;50.392;7.482;2022-10-18T01:49:39;17.10;;;11.53;;
4980;SDS011;2507;50.392;7.482;2022-10-18T01:52:04;14.37;;;11.73;;
4980;SDS011;2507;50.392;7.482;2022-10-18T01:54:32;14.60;;;11.90;;
4980;SDS011;2507;50.392;7.482;2022-10-18T01:57:01;18.37;;;12.70;;
4980;SDS011;2507;50.392;7.482;2022-10-18T02:05:11;13.40;;;11.10;;
4980;SDS011;2507;50.392;7.482;2022-10-18T02:08:27;13.90;;;12.07;;
4980;SDS011;2507;50.392;7.482;2022-10-18T02:10:40;15.60;;;11.97;;
4980;SDS011;2507;50.392;7.482;2022-10-18T02:13:12;14.93;;;11.33;;
4980;SDS011;2507;50.392;7.482;2022-10-18T02:15:40;16.40;;;13.57;;
4980;SDS011;2507;50.392;7.482;2022-10-18T02:18:14;14.87;;;12.33;;
4980;SDS011;2507;50.392;7.482;2022-10-18T02:20:44;18.13;;;13.77;;
4980;SDS011;2507;50.392;7.482;2022-10-18T02:23:12;15.67;;;13.13;;
4980;SDS011;2507;50.392;7.482;2022-10-18T02:25:39;15.47;;;13.80;;
4980;SDS011;2507;50.392;7.482;2022-10-18T02:28:04;18.30;;;13.30;;
4980;SDS011;2507;50.392;7.482;2022-10-18T02:30:35;18.80;;;13.77;;
4980;SDS011;2507;50.392;7.482;2022-10-18T02:33:08;14.20;;;12.03;;
4980;SDS011;2507;50.392;7.482;2022-10-18T02:35:39;15.50;;;12.70;;
4980;SDS011;2507;50.392;7.482;2022-10-18T02:38:12;17.97;;;12.67;;
4980;SDS011;2507;50.392;7.482;2022-10-18T02:40:40;18.47;;;14.30;;
4980;SDS011;2507;50.392;7.482;2022-10-18T02:43:05;23.20;;;18.70;;
4980;SDS011;2507;50.392;7.482;2022-10-18T02:45:30;36.37;;;31.50;;
4980;SDS011;2507;50.392;7.482;2022-10-18T02:47:56;20.20;;;15.27;;
4980;SDS011;2507;50.392;7.482;2022-10-18T02:50:22;20.97;;;15.90;;
4980;SDS011;2507;50.392;7.482;2022-10-18T02:52:47;20.67;;;15.17;;
4980;SDS011;2507;50.392;7.482;2022-10-18T02:55:12;17.00;;;13.67;;
4980;SDS011;2507;50.392;7.482;2022-10-18T02:57:38;17.17;;;13.90;;
4980;SDS011;2507;50.392;7.482;2022-10-18T03:00:04;22.00;;;15.87;;
4980;SDS011;2507;50.392;7.482;2022-10-18T03:02:30;21.87;;;17.53;;
4980;SDS011;2507;50.392;7.482;2022-10-18T03:04:55;21.43;;;16.73;;
4980;SDS011;2507;50.392;7.482;2022-10-18T03:07:21;17.07;;;14.83;;
4980;SDS011;2507;50.392;7.482;2022-10-18T03:09:46;16.73;;;13.97;;
4980;SDS011;2507;50.392;7.482;2022-10-18T03:12:12;18.30;;;13.90;;
4980;SDS011;2507;50.392;7.482;2022-10-18T03:14:37;18.20;;;13.20;;
4980;SDS011;2507;50.392;7.482;2022-10-18T03:17:02;17.10;;;14.10;;
4980;SDS011;2507;50.392;7.482;2022-10-18T03:19:28;13.60;;;11.57;;
4980;SDS011;2507;50.392;7.482;2022-10-18T03:21:53;13.87;;;12.37;;
4980;SDS011;2507;50.392;7.482;2022-10-18T03:24:18;14.57;;;12.97;;
4980;SDS011;2507;50.392;7.482;2022-10-18T03:26:43;15.97;;;13.83;;
4980;SDS011;2507;50.392;7.482;2022-10-18T03:29:09;15.73;;;13.57;;
4980;SDS011;2507;50.392;7.482;2022-10-18T03:31:35;16.17;;;12.87;;
4980;SDS011;2507;50.392;7.482;2022-10-18T03:34:00;15.53;;;14.03;;
4980;SDS011;2507;50.392;7.482;2022-10-18T03:36:25;15.93;;;13.00;;
4980;SDS011;2507;50.392;7.482;2022-10-18T03:38:51;16.20;;;13.60;;
4980;SDS011;2507;50.392;7.482;2022-10-18T03:41:16;21.60;;;18.03;;
4980;SDS011;2507;50.392;7.482;2022-10-18T03:43:42;23.50;;;19.47;;
4980;SDS011;2507;50.392;7.482;2022-10-18T03:46:07;25.00;;;21.70;;
4980;SDS011;2507;50.392;7.482;2022-10-18T03:48:32;17.37;;;15.40;;
4980;SDS011;2507;50.392;7.482;2022-10-18T03:50:58;21.73;;;16.63;;
4980;SDS011;2507;50.392;7.482;2022-10-18T03:53:23;19.53;;;16.87;;
4980;SDS011;2507;50.392;7.482;2022-10-18T03:55:49;21.87;;;19.57;;
4980;SDS011;2507;50.392;7.482;2022-10-18T03:58:16;17.43;;;15.40;;
4980;SDS011;2507;50.392;7.482;2022-10-18T04:00:42;17.47;;;13.63;;
4980;SDS011;2507;50.392;7.482;2022-10-18T04:03:07;18.60;;;14.57;;
4980;SDS011;2507;50.392;7.482;2022-10-18T04:05:32;15.63;;;14.00;;
4980;SDS011;2507;50.392;7.482;2022-10-18T04:07:58;13.43;;;12.03;;
4980;SDS011;2507;50.392;7.482;2022-10-18T04:10:24;14.97;;;12.53;;
4980;SDS011;2507;50.392;7.482;2022-10-18T04:12:49;15.90;;;12.73;;
4980;SDS011;2507;50.392;7.482;2022-10-18T04:15:15;15.20;;;13.17;;
4980;SDS011;2507;50.392;7.482;2022-10-18T04:17:40;15.50;;;13.77;;
4980;SDS011;2507;50.392;7.482;2022-10-18T04:20:06;15.00;;;12.80;;
4980;SDS011;2507;50.392;7.482;2022-10-18T04:22:31;18.10;;;13.30;;
4980;SDS011;2507;50.392;7.482;2022-10-18T04:24:56;15.30;;;13.60;;
4980;SDS011;2507;50.392;7.482;2022-10-18T04:27:22;15.50;;;13.00;;
4980;SDS011;2507;50.392;7.482;2022-10-18T04:29:47;16.40;;;13.30;;
4980;SDS011;2507;50.392;7.482;2022-10-18T04:32:13;15.00;;;13.50;;
4980;SDS011;2507;50.392;7.482;2022-10-18T04:34:38;18.17;;;13.63;;
4980;SDS011;2507;50.392;7.482;2022-10-18T04:37:03;16.33;;;13.20;;
4980;SDS011;2507;50.392;7.482;2022-10-18T04:39:29;17.47;;;14.03;;
4980;SDS011;2507;50.392;7.482;2022-10-18T04:41:54;16.43;;;13.50;;
4980;SDS011;2507;50.392;7.482;2022-10-18T04:44:19;14.47;;;12.97;;
4980;SDS011;2507;50.392;7.482;2022-10-18T04:46:45;16.77;;;13.90;;
4980;SDS011;2507;50.392;7.482;2022-10-18T04:49:10;13.90;;;12.43;;
4980;SDS011;2507;50.392;7.482;2022-10-18T04:51:35;14.70;;;12.57;;
4980;SDS011;2507;50.392;7.482;2022-10-18T04:54:01;17.00;;;13.53;;
4980;SDS011;2507;50.392;7.482;2022-10-18T04:56:26;14.33;;;12.83;;
4980;SDS011;2507;50.392;7.482;2022-10-18T04:58:51;15.33;;;12.70;;
4980;SDS011;2507;50.392;7.482;2022-10-18T05:01:17;14.27;;;12.77;;
4980;SDS011;2507;50.392;7.482;2022-10-18T05:03:43;13.40;;;11.90;;
4980;SDS011;2507;50.392;7.482;2022-10-18T05:06:08;14.10;;;12.10;;
4980;SDS011;2507;50.392;7.482;2022-10-18T05:08:34;13.70;;;11.70;;
4980;SDS011;2507;50.392;7.482;2022-10-18T05:11:01;13.33;;;11.00;;
4980;SDS011;2507;50.392;7.482;2022-10-18T05:13:27;12.30;;;10.73;;
4980;SDS011;2507;50.392;7.482;2022-10-18T05:15:53;15.13;;;12.13;;
4980;SDS011;2507;50.392;7.482;2022-10-18T05:18:19;14.57;;;11.17;;
4980;SDS011;2507;50.392;7.482;2022-10-18T05:20:45;12.23;;;10.63;;
4980;SDS011;2507;50.392;7.482;2022-10-18T05:23:10;16.03;;;10.83;;
4980;SDS011;2507;50.392;7.482;2022-10-18T05:25:39;12.20;;;10.70;;
4980;SDS011;2507;50.392;7.482;2022-10-18T05:28:06;12.17;;;10.27;;
4980;SDS011;2507;50.392;7.482;2022-10-18T05:30:32;13.27;;;10.57;;
4980;SDS011;2507;50.392;7.482;2022-10-18T05:32:57;12.00;;;10.03;;
4980;SDS011;2507;50.392;7.482;2022-10-18T05:35:23;13.60;;;11.13;;
4980;SDS011;2507;50.392;7.482;2022-10-18T05:37:48;11.40;;;9.33;;
4980;SDS011;2507;50.392;7.482;2022-10-18T05:40:13;11.00;;;9.77;;
4980;SDS011;2507;50.392;7.482;2022-10-18T05:42:39;8.93;;;8.03;;
4980;SDS011;2507;50.392;7.482;2022-10-18T05:45:04;7.30;;;6.70;;
4980;SDS011;2507;50.392;7.482;2022-10-18T05:47:30;8.63;;;7.10;;
4980;SDS011;2507;50.392;7.482;2022-10-18T05:49:55;7.10;;;6.40;;
4980;SDS011;2507;50.392;7.482;2022-10-18T05:52:20;6.30;;;5.40;;
4980;SDS011;2507;50.392;7.482;2022-10-18T05:54:46;5.70;;;5.20;;
4980;SDS011;2507;50.392;7.482;2022-10-18T05:57:11;6.23;;;5.63;;
4980;SDS011;2507;50.392;7.482;2022-10-18T05:59:36;6.30;;;5.77;;
4980;SDS011;2507;50.392;7.482;2022-10-18T06:02:01;5.23;;;4.73;;
4980;SDS011;2507;50.392;7.482;2022-10-18T06:04:27;5.17;;;4.77;;
4980;SDS011;2507;50.392;7.482;2022-10-18T06:06:52;5.07;;;4.67;;
4980;SDS011;2507;50.392;7.482;2022-10-18T06:09:19;5.17;;;4.77;;
4980;SDS011;2507;50.392;7.482;2022-10-18T06:11:44;4.33;;;4.13;;
4980;SDS011;2507;50.392;7.482;2022-10-18T06:14:09;4.03;;;3.73;;
4980;SDS011;2507;50.392;7.482;2022-10-18T06:16:35;9.90;;;4.30;;
4980;SDS011;2507;50.392;7.482;2022-10-18T06:19:00;4.37;;;3.63;;
4980;SDS011;2507;50.392;7.482;2022-10-18T06:21:25;4.37;;;4.00;;
4980;SDS011;2507;50.392;7.482;2022-10-18T06:23:52;3.80;;;3.50;;
4980;SDS011;2507;50.392;7.482;2022-10-18T06:26:22;4.07;;;3.50;;
4980;SDS011;2507;50.392;7.482;2022-10-18T06:28:48;3.60;;;3.40;;
4980;SDS011;2507;50.392;7.482;2022-10-18T06:31:14;4.13;;;3.73;;
4980;SDS011;2507;50.392;7.482;2022-10-18T06:33:40;2.70;;;2.60;;
4980;SDS011;2507;50.392;7.482;2022-10-18T06:36:07;3.33;;;3.13;;
4980;SDS011;2507;50.392;7.482;2022-10-18T06:38:37;10.83;;;4.27;;
4980;SDS011;2507;50.392;7.482;2022-10-18T06:41:03;3.30;;;3.13;;
4980;SDS011;2507;50.392;7.482;2022-10-18T06:43:29;3.40;;;3.10;;
4980;SDS011;2507;50.392;7.482;2022-10-18T06:45:54;3.40;;;3.10;;
4980;SDS011;2507;50.392;7.482;2022-10-18T06:48:20;3.67;;;3.37;;
4980;SDS011;2507;50.392;7.482;2022-10-18T06:51:19;4.67;;;4.37;;
4980;SDS011;2507;50.392;7.482;2022-10-18T06:53:39;4.47;;;3.70;;
4980;SDS011;2507;50.392;7.482;2022-10-18T06:56:06;3.80;;;3.50;;
4980;SDS011;2507;50.392;7.482;2022-10-18T06:58:33;4.83;;;4.43;;
4980;SDS011;2507;50.392;7.482;2022-10-18T07:01:03;3.90;;;3.67;;
4980;SDS011;2507;50.392;7.482;2022-10-18T07:03:33;3.20;;;3.10;;
4980;SDS011;2507;50.392;7.482;2022-10-18T07:05:59;3.50;;;3.20;;
4980;SDS011;2507;50.392;7.482;2022-10-18T07:08:26;3.57;;;3.27;;
4980;SDS011;2507;50.392;7.482;2022-10-18T07:10:51;2.80;;;2.70;;
4980;SDS011;2507;50.392;7.482;2022-10-18T07:13:17;3.10;;;2.97;;
4980;SDS011;2507;50.392;7.482;2022-10-18T07:15:43;7.23;;;2.53;;
4980;SDS011;2507;50.392;7.482;2022-10-18T07:18:08;3.47;;;2.30;;
4980;SDS011;2507;50.392;7.482;2022-10-18T07:20:34;2.30;;;2.20;;
4980;SDS011;2507;50.392;7.482;2022-10-18T07:22:59;2.30;;;2.10;;
4980;SDS011;2507;50.392;7.482;2022-10-18T07:25:25;3.80;;;2.60;;
4980;SDS011;2507;50.392;7.482;2022-10-18T07:27:50;2.10;;;1.90;;
4980;SDS011;2507;50.392;7.482;2022-10-18T07:30:15;1.80;;;1.80;;
4980;SDS011;2507;50.392;7.482;2022-10-18T07:32:41;1.70;;;1.60;;
4980;SDS011;2507;50.392;7.482;2022-10-18T07:35:06;1.93;;;1.83;;
4980;SDS011;2507;50.392;7.482;2022-10-18T07:37:32;1.83;;;1.80;;
4980;SDS011;2507;50.392;7.482;2022-10-18T07:39:57;2.60;;;2.13;;
4980;SDS011;2507;50.392;7.482;2022-10-18T07:42:22;1.83;;;1.73;;
4980;SDS011;2507;50.392;7.482;2022-10-18T07:44:48;2.40;;;2.10;;
4980;SDS011;2507;50.392;7.482;2022-10-18T07:47:14;2.07;;;1.97;;
4980;SDS011;2507;50.392;7.482;2022-10-18T07:49:39;6.20;;;1.90;;
4980;SDS011;2507;50.392;7.482;2022-10-18T07:52:05;2.77;;;2.23;;
4980;SDS011;2507;50.392;7.482;2022-10-18T07:54:30;1.70;;;1.70;;
4980;SDS011;2507;50.392;7.482;2022-10-18T07:56:55;2.20;;;2.07;;
4980;SDS011;2507;50.392;7.482;2022-10-18T07:59:20;1.93;;;1.93;;
4980;SDS011;2507;50.392;7.482;2022-10-18T08:01:46;2.37;;;2.27;;
4980;SDS011;2507;50.392;7.482;2022-10-18T08:04:11;1.80;;;1.80;;
4980;SDS011;2507;50.392;7.482;2022-10-18T08:06:36;2.30;;;2.20;;
4980;SDS011;2507;50.392;7.482;2022-10-18T08:09:02;2.00;;;1.90;;
4980;SDS011;2507;50.392;7.482;2022-10-18T08:11:27;1.40;;;1.33;;
4980;SDS011;2507;50.392;7.482;2022-10-18T08:13:53;2.50;;;1.53;;
4980;SDS011;2507;50.392;7.482;2022-10-18T08:16:20;1.70;;;1.60;;
4980;SDS011;2507;50.392;7.482;2022-10-18T08:18:47;1.70;;;1.60;;
4980;SDS011;2507;50.392;7.482;2022-10-18T08:21:12;1.80;;;1.70;;
4980;SDS011;2507;50.392;7.482;2022-10-18T08:23:39;1.53;;;1.47;;
4980;SDS011;2507;50.392;7.482;2022-10-18T08:26:05;1.70;;;1.60;;
4980;SDS011;2507;50.392;7.482;2022-10-18T08:28:32;1.83;;;1.73;;
4980;SDS011;2507;50.392;7.482;2022-10-18T08:31:01;1.80;;;1.70;;
4980;SDS011;2507;50.392;7.482;2022-10-18T08:33:27;2.40;;;2.00;;
4980;SDS011;2507;50.392;7.482;2022-10-18T08:35:53;2.33;;;2.23;;
4980;SDS011;2507;50.392;7.482;2022-10-18T08:38:20;2.27;;;2.07;;
4980;SDS011;2507;50.392;7.482;2022-10-18T08:40:45;1.67;;;1.57;;
4980;SDS011;2507;50.392;7.482;2022-10-18T08:43:31;1.87;;;1.87;;
4980;SDS011;2507;50.392;7.482;2022-10-18T08:45:57;3.07;;;2.30;;
4980;SDS011;2507;50.392;7.482;2022-10-18T08:48:30;2.60;;;2.40;;
4980;SDS011;2507;50.392;7.482;2022-10-18T08:51:03;4.70;;;2.37;;
4980;SDS011;2507;50.392;7.482;2022-10-18T08:53:32;2.53;;;2.33;;
4980;SDS011;2507;50.392;7.482;2022-10-18T08:58:30;2.30;;;2.20;;
4980;SDS011;2507;50.392;7.482;2022-10-18T09:01:02;2.60;;;2.50;;
4980;SDS011;2507;50.392;7.482;2022-10-18T09:06:38;3.40;;;3.20;;
4980;SDS011;2507;50.392;7.482;2022-10-18T09:17:34;5.27;;;3.87;;
4980;SDS011;2507;50.392;7.482;2022-10-18T09:22:58;3.93;;;3.73;;
4980;SDS011;2507;50.392;7.482;2022-10-18T09:25:34;4.43;;;4.13;;
4980;SDS011;2507;50.392;7.482;2022-10-18T09:30:46;5.40;;;4.50;;
4980;SDS011;2507;50.392;7.482;2022-10-18T09:36:12;4.97;;;4.57;;
4980;SDS011;2507;50.392;7.482;2022-10-18T09:38:50;5.93;;;4.67;;
4980;SDS011;2507;50.392;7.482;2022-10-18T09:41:22;5.83;;;5.03;;
4980;SDS011;2507;50.392;7.482;2022-10-18T09:46:24;6.23;;;5.63;;
4980;SDS011;2507;50.392;7.482;2022-10-18T09:48:55;5.67;;;5.27;;
4980;SDS011;2507;50.392;7.482;2022-10-18T09:51:26;6.10;;;5.00;;
4980;SDS011;2507;50.392;7.482;2022-10-18T09:53:59;6.13;;;5.60;;
4980;SDS011;2507;50.392;7.482;2022-10-18T09:56:31;3.77;;;3.47;;
4980;SDS011;2507;50.392;7.482;2022-10-18T09:59:01;3.30;;;3.07;;
4980;SDS011;2507;50.392;7.482;2022-10-18T10:01:30;3.10;;;2.90;;
4980;SDS011;2507;50.392;7.482;2022-10-18T10:03:57;4.67;;;3.77;;
4980;SDS011;2507;50.392;7.482;2022-10-18T10:09:35;3.33;;;3.13;;
4980;SDS011;2507;50.392;7.482;2022-10-18T10:11:45;3.83;;;3.63;;
4980;SDS011;2507;50.392;7.482;2022-10-18T10:14:22;3.87;;;3.67;;
4980;SDS011;2507;50.392;7.482;2022-10-18T10:16:57;6.03;;;3.63;;
4980;SDS011;2507;50.392;7.482;2022-10-18T10:19:27;3.57;;;3.37;;
4980;SDS011;2507;50.392;7.482;2022-10-18T10:21:57;4.60;;;3.50;;
4980;SDS011;2507;50.392;7.482;2022-10-18T10:24:28;4.47;;;4.17;;
4980;SDS011;2507;50.392;7.482;2022-10-18T10:27:23;5.40;;;4.17;;
4980;SDS011;2507;50.392;7.482;2022-10-18T10:29:59;5.43;;;4.40;;
4980;SDS011;2507;50.392;7.482;2022-10-18T10:32:27;4.10;;;3.80;;
4980;SDS011;2507;50.392;7.482;2022-10-18T10:34:55;4.47;;;4.07;;
4980;SDS011;2507;50.392;7.482;2022-10-18T10:37:26;3.07;;;2.90;;
4980;SDS011;2507;50.392;7.482;2022-10-18T10:40:12;4.37;;;2.77;;
4980;SDS011;2507;50.392;7.482;2022-10-18T10:42:50;2.80;;;2.60;;
4980;SDS011;2507;50.392;7.482;2022-10-18T10:45:19;6.30;;;2.27;;
4980;SDS011;2507;50.392;7.482;2022-10-18T10:47:46;4.80;;;2.80;;
4980;SDS011;2507;50.392;7.482;2022-10-18T10:50:12;2.97;;;2.77;;
4980;SDS011;2507;50.392;7.482;2022-10-18T10:52:46;3.50;;;2.40;;
4980;SDS011;2507;50.392;7.482;2022-10-18T10:55:19;3.27;;;3.00;;
4980;SDS011;2507;50.392;7.482;2022-10-18T10:57:48;2.73;;;2.53;;
4980;SDS011;2507;50.392;7.482;2022-10-18T11:00:35;2.37;;;2.20;;
4980;SDS011;2507;50.392;7.482;2022-10-18T11:03:05;2.50;;;2.30;;
4980;SDS011;2507;50.392;7.482;2022-10-18T11:05:42;5.47;;;2.33;;
4980;SDS011;2507;50.392;7.482;2022-10-18T11:08:11;2.10;;;1.90;;
4980;SDS011;2507;50.392;7.482;2022-10-18T11:11:22;2.33;;;2.00;;
4980;SDS011;2507;50.392;7.482;2022-10-18T11:19:31;2.93;;;2.17;;
4980;SDS011;2507;50.392;7.482;2022-10-18T11:22:05;2.93;;;2.40;;
4980;SDS011;2507;50.392;7.482;2022-10-18T11:24:36;3.03;;;2.77;;
4980;SDS011;2507;50.392;7.482;2022-10-18T11:29:37;2.50;;;2.30;;
4980;SDS011;2507;50.392;7.482;2022-10-18T11:32:27;2.70;;;2.50;;
4980;SDS011;2507;50.392;7.482;2022-10-18T11:35:06;1.80;;;1.80;;
4980;SDS011;2507;50.392;7.482;2022-10-18T11:37:50;1.80;;;1.70;;
4980;SDS011;2507;50.392;7.482;2022-10-18T11:40:57;2.10;;;2.00;;
4980;SDS011;2507;50.392;7.482;2022-10-18T11:43:30;5.37;;;2.07;;
4980;SDS011;2507;50.392;7.482;2022-10-18T11:59:53;5.20;;;2.73;;
4980;SDS011;2507;50.392;7.482;2022-10-18T12:05:12;3.30;;;3.00;;
4980;SDS011;2507;50.392;7.482;2022-10-18T12:07:41;3.50;;;3.20;;
4980;SDS011;2507;50.392;7.482;2022-10-18T12:10:14;3.10;;;3.00;;
4980;SDS011;2507;50.392;7.482;2022-10-18T12:12:47;6.00;;;2.70;;
4980;SDS011;2507;50.392;7.482;2022-10-18T12:15:20;2.67;;;2.57;;
4980;SDS011;2507;50.392;7.482;2022-10-18T12:17:51;2.90;;;2.70;;
4980;SDS011;2507;50.392;7.482;2022-10-18T12:25:28;2.20;;;2.10;;
4980;SDS011;2507;50.392;7.482;2022-10-18T12:28:23;1.97;;;1.87;;
4980;SDS011;2507;50.392;7.482;2022-10-18T12:33:19;2.50;;;2.40;;
4980;SDS011;2507;50.392;7.482;2022-10-18T12:38:29;5.33;;;3.10;;
4980;SDS011;2507;50.392;7.482;2022-10-18T12:40:57;3.13;;;2.93;;
4980;SDS011;2507;50.392;7.482;2022-10-18T12:43:27;4.33;;;4.03;;
4980;SDS011;2507;50.392;7.482;2022-10-18T12:45:58;4.10;;;3.70;;
4980;SDS011;2507;50.392;7.482;2022-10-18T12:51:16;5.27;;;4.77;;
4980;SDS011;2507;50.392;7.482;2022-10-18T12:53:44;4.33;;;4.03;;
4980;SDS011;2507;50.392;7.482;2022-10-18T12:58:52;4.50;;;4.10;;
4980;SDS011;2507;50.392;7.482;2022-10-18T13:04:37;8.90;;;5.07;;
4980;SDS011;2507;50.392;7.482;2022-10-18T13:09:35;5.30;;;4.87;;
4980;SDS011;2507;50.392;7.482;2022-10-18T13:14:35;6.60;;;5.77;;
4980;SDS011;2507;50.392;7.482;2022-10-18T13:20:21;6.93;;;6.30;;
4980;SDS011;2507;50.392;7.482;2022-10-18T13:33:29;7.77;;;6.97;;
4980;SDS011;2507;50.392;7.482;2022-10-18T13:41:06;7.23;;;6.53;;
4980;SDS011;2507;50.392;7.482;2022-10-18T13:43:53;7.03;;;6.43;;
4980;SDS011;2507;50.392;7.482;2022-10-18T13:48:59;8.53;;;7.70;;
4980;SDS011;2507;50.392;7.482;2022-10-18T13:54:35;9.50;;;8.30;;
4980;SDS011;2507;50.392;7.482;2022-10-18T13:57:14;8.20;;;7.40;;
4980;SDS011;2507;50.392;7.482;2022-10-18T13:59:56;8.83;;;7.97;;
4980;SDS011;2507;50.392;7.482;2022-10-18T14:02:50;12.77;;;11.23;;
4980;SDS011;2507;50.392;7.482;2022-10-18T14:11:07;10.80;;;9.10;;
4980;SDS011;2507;50.392;7.482;2022-10-18T14:13:45;9.77;;;8.77;;
4980;SDS011;2507;50.392;7.482;2022-10-18T14:16:47;12.23;;;10.90;;
4980;SDS011;2507;50.392;7.482;2022-10-18T14:24:42;10.53;;;9.43;;
4980;SDS011;2507;50.392;7.482;2022-10-18T14:27:11;9.27;;;8.47;;
4980;SDS011;2507;50.392;7.482;2022-10-18T14:29:40;10.37;;;9.30;;
4980;SDS011;2507;50.392;7.482;2022-10-18T14:32:10;10.37;;;9.10;;
4980;SDS011;2507;50.392;7.482;2022-10-18T14:34:45;9.90;;;9.00;;
4980;SDS011;2507;50.392;7.482;2022-10-18T14:39:57;10.60;;;9.53;;
4980;SDS011;2507;50.392;7.482;2022-10-18T14:42:23;9.50;;;8.60;;
4980;SDS011;2507;50.392;7.482;2022-10-18T14:44:51;10.10;;;9.20;;
4980;SDS011;2507;50.392;7.482;2022-10-18T14:49:47;10.90;;;9.00;;
4980;SDS011;2507;50.392;7.482;2022-10-18T14:52:15;11.40;;;9.53;;
4980;SDS011;2507;50.392;7.482;2022-10-18T14:54:42;9.83;;;8.93;;
4980;SDS011;2507;50.392;7.482;2022-10-18T14:57:12;9.20;;;8.40;;
4980;SDS011;2507;50.392;7.482;2022-10-18T15:02:16;10.93;;;9.83;;
4980;SDS011;2507;50.392;7.482;2022-10-18T15:04:45;11.07;;;9.50;;
4980;SDS011;2507;50.392;7.482;2022-10-18T15:07:12;10.73;;;9.70;;
4980;SDS011;2507;50.392;7.482;2022-10-18T15:09:39;11.07;;;9.97;;
4980;SDS011;2507;50.392;7.482;2022-10-18T15:12:06;9.80;;;8.90;;
4980;SDS011;2507;50.392;7.482;2022-10-18T15:14:32;12.20;;;10.90;;
4980;SDS011;2507;50.392;7.482;2022-10-18T15:16:59;10.77;;;9.63;;
4980;SDS011;2507;50.392;7.482;2022-10-18T15:19:30;11.30;;;10.20;;
4980;SDS011;2507;50.392;7.482;2022-10-18T15:24:32;12.60;;;11.27;;
4980;SDS011;2507;50.392;7.482;2022-10-18T15:27:13;14.90;;;12.03;;
4980;SDS011;2507;50.392;7.482;2022-10-18T15:29:50;16.40;;;13.57;;
4980;SDS011;2507;50.392;7.482;2022-10-18T15:32:34;15.13;;;13.03;;
4980;SDS011;2507;50.392;7.482;2022-10-18T15:35:06;15.20;;;13.60;;
4980;SDS011;2507;50.392;7.482;2022-10-18T15:37:41;16.10;;;13.40;;
4980;SDS011;2507;50.392;7.482;2022-10-18T15:40:16;16.60;;;14.07;;
4980;SDS011;2507;50.392;7.482;2022-10-18T15:42:50;13.83;;;12.50;;
4980;SDS011;2507;50.392;7.482;2022-10-18T15:59:00;18.37;;;15.90;;
4980;SDS011;2507;50.392;7.482;2022-10-18T16:01:35;19.33;;;15.50;;
4980;SDS011;2507;50.392;7.482;2022-10-18T16:04:15;21.67;;;16.60;;
4980;SDS011;2507;50.392;7.482;2022-10-18T16:06:44;18.60;;;15.40;;
4980;SDS011;2507;50.392;7.482;2022-10-18T16:09:14;20.13;;;17.20;;
4980;SDS011;2507;50.392;7.482;2022-10-18T16:11:41;18.97;;;16.87;;
4980;SDS011;2507;50.392;7.482;2022-10-18T16:14:07;19.30;;;16.60;;
4980;SDS011;2507;50.392;7.482;2022-10-18T16:16:32;20.10;;;16.97;;
4980;SDS011;2507;50.392;7.482;2022-10-18T16:18:58;18.97;;;16.23;;
4980;SDS011;2507;50.392;7.482;2022-10-18T16:21:28;33.90;;;25.90;;
4980;SDS011;2507;50.392;7.482;2022-10-18T16:23:55;38.90;;;29.53;;
4980;SDS011;2507;50.392;7.482;2022-10-18T16:26:21;29.60;;;23.33;;
4980;SDS011;2507;50.392;7.482;2022-10-18T16:28:48;25.03;;;18.27;;
4980;SDS011;2507;50.392;7.482;2022-10-18T16:31:18;21.83;;;18.30;;
4980;SDS011;2507;50.392;7.482;2022-10-18T16:33:46;21.20;;;18.20;;
4980;SDS011;2507;50.392;7.482;2022-10-18T16:36:16;22.00;;;18.10;;
4980;SDS011;2507;50.392;7.482;2022-10-18T16:38:44;21.57;;;18.13;;
4980;SDS011;2507;50.392;7.482;2022-10-18T16:41:10;25.83;;;19.67;;
4980;SDS011;2507;50.392;7.482;2022-10-18T16:43:37;24.90;;;19.30;;
4980;SDS011;2507;50.392;7.482;2022-10-18T16:46:03;26.70;;;21.00;;
4980;SDS011;2507;50.392;7.482;2022-10-18T16:48:30;29.70;;;23.80;;
4980;SDS011;2507;50.392;7.482;2022-10-18T16:50:56;22.67;;;18.77;;
4980;SDS011;2507;50.392;7.482;2022-10-18T16:53:22;31.90;;;25.03;;
4980;SDS011;2507;50.392;7.482;2022-10-18T16:55:55;30.47;;;23.23;;
4980;SDS011;2507;50.392;7.482;2022-10-18T16:58:22;26.37;;;19.80;;
4980;SDS011;2507;50.392;7.482;2022-10-18T17:00:49;24.57;;;20.00;;
4980;SDS011;2507;50.392;7.482;2022-10-18T17:03:15;27.20;;;20.63;;
4980;SDS011;2507;50.392;7.482;2022-10-18T17:05:40;27.33;;;20.83;;
4980;SDS011;2507;50.392;7.482;2022-10-18T17:08:06;32.43;;;22.20;;
4980;SDS011;2507;50.392;7.482;2022-10-18T17:10:37;29.07;;;21.40;;
4980;SDS011;2507;50.392;7.482;2022-10-18T17:13:02;28.10;;;20.60;;
4980;SDS011;2507;50.392;7.482;2022-10-18T17:15:28;31.67;;;22.83;;
4980;SDS011;2507;50.392;7.482;2022-10-18T17:17:53;37.63;;;28.87;;
4980;SDS011;2507;50.392;7.482;2022-10-18T17:20:22;39.87;;;25.00;;
4980;SDS011;2507;50.392;7.482;2022-10-18T17:22:50;36.63;;;27.10;;
4980;SDS011;2507;50.392;7.482;2022-10-18T17:25:16;34.93;;;23.83;;
4980;SDS011;2507;50.392;7.482;2022-10-18T17:27:42;36.13;;;26.30;;
4980;SDS011;2507;50.392;7.482;2022-10-18T17:30:08;41.33;;;27.63;;
4980;SDS011;2507;50.392;7.482;2022-10-18T17:32:34;33.60;;;26.23;;
4980;SDS011;2507;50.392;7.482;2022-10-18T17:35:00;33.17;;;25.07;;
4980;SDS011;2507;50.392;7.482;2022-10-18T17:37:25;37.17;;;26.67;;
4980;SDS011;2507;50.392;7.482;2022-10-18T17:39:51;33.17;;;25.30;;
4980;SDS011;2507;50.392;7.482;2022-10-18T17:42:16;30.80;;;22.77;;
4980;SDS011;2507;50.392;7.482;2022-10-18T17:44:41;36.53;;;25.57;;
4980;SDS011;2507;50.392;7.482;2022-10-18T17:47:08;32.23;;;23.90;;
4980;SDS011;2507;50.392;7.482;2022-10-18T17:49:33;33.50;;;23.23;;
4980;SDS011;2507;50.392;7.482;2022-10-18T17:51:58;44.03;;;30.27;;